sensor_id;sensor_type;location;lat;lon;timestamp;P1;durP1;ratioP1;P2;durP2;ratioP2
60336;SDS011;46978;50.288;28.624;2023-09-19T00:00:42;13.94;;;8.97;;
60336;SDS011;46978;50.288;28.624;2023-09-19T00:01:41;12.92;;;8.57;;
60336;SDS011;46978;50.288;28.624;2023-09-19T00:02:44;17.31;;;9.55;;
60336;SDS011;46978;50.288;28.624;2023-09-19T00:03:47;15.09;;;9.26;;
60336;SDS011;46978;50.288;28.624;2023-09-19T00:04:48;15.21;;;9.05;;
60336;SDS011;46978;50.288;28.624;2023-09-19T00:05:50;13.96;;;9.11;;
60336;SDS011;46978;50.288;28.624;2023-09-19T00:06:51;13.87;;;8.92;;
60336;SDS011;46978;50.288;28.624;2023-09-19T00:07:54;12.99;;;8.41;;
60336;SDS011;46978;50.288;28.624;2023-09-19T00:08:57;13.72;;;8.38;;
60336;SDS011;46978;50.288;28.624;2023-09-19T00:09:59;13.78;;;8.61;;
60336;SDS011;46978;50.288;28.624;2023-09-19T00:11:01;13.51;;;8.18;;
60336;SDS011;46978;50.288;28.624;2023-09-19T00:12:04;20.96;;;8.97;;
60336;SDS011;46978;50.288;28.624;2023-09-19T00:13:07;17.88;;;9.46;;
60336;SDS011;46978;50.288;28.624;2023-09-19T00:14:10;13.33;;;8.83;;
60336;SDS011;46978;50.288;28.624;2023-09-19T00:15:12;13.34;;;8.42;;
60336;SDS011;46978;50.288;28.624;2023-09-19T00:16:13;15.11;;;8.79;;
60336;SDS011;46978;50.288;28.624;2023-09-19T00:17:15;14.81;;;9.51;;
60336;SDS011;46978;50.288;28.624;2023-09-19T00:18:20;13.54;;;7.99;;
60336;SDS011;46978;50.288;28.624;2023-09-19T00:19:22;15.16;;;8.94;;
60336;SDS011;46978;50.288;28.624;2023-09-19T00:20:24;16.59;;;9.41;;
60336;SDS011;46978;50.288;28.624;2023-09-19T00:21:25;12.76;;;8.36;;
60336;SDS011;46978;50.288;28.624;2023-09-19T00:22:27;13.61;;;8.73;;
60336;SDS011;46978;50.288;28.624;2023-09-19T00:23:28;15.40;;;8.98;;
60336;SDS011;46978;50.288;28.624;2023-09-19T00:24:30;14.55;;;8.83;;
60336;SDS011;46978;50.288;28.624;2023-09-19T00:25:32;12.00;;;7.78;;
60336;SDS011;46978;50.288;28.624;2023-09-19T00:26:33;12.00;;;7.98;;
60336;SDS011;46978;50.288;28.624;2023-09-19T00:27:35;14.97;;;8.82;;
60336;SDS011;46978;50.288;28.624;2023-09-19T00:28:37;12.17;;;7.88;;
60336;SDS011;46978;50.288;28.624;2023-09-19T00:29:39;14.00;;;8.59;;
60336;SDS011;46978;50.288;28.624;2023-09-19T00:30:42;11.88;;;8.59;;
60336;SDS011;46978;50.288;28.624;2023-09-19T00:31:44;11.49;;;8.26;;
60336;SDS011;46978;50.288;28.624;2023-09-19T00:32:46;17.10;;;8.73;;
60336;SDS011;46978;50.288;28.624;2023-09-19T00:33:49;13.07;;;8.18;;
60336;SDS011;46978;50.288;28.624;2023-09-19T00:34:50;13.31;;;8.36;;
60336;SDS011;46978;50.288;28.624;2023-09-19T00:35:52;13.57;;;8.46;;
60336;SDS011;46978;50.288;28.624;2023-09-19T00:36:55;12.68;;;7.74;;
60336;SDS011;46978;50.288;28.624;2023-09-19T00:37:56;12.26;;;8.03;;
60336;SDS011;46978;50.288;28.624;2023-09-19T00:38:58;13.26;;;8.19;;
60336;SDS011;46978;50.288;28.624;2023-09-19T00:40:00;12.55;;;8.31;;
60336;SDS011;46978;50.288;28.624;2023-09-19T00:41:01;14.15;;;8.16;;
60336;SDS011;46978;50.288;28.624;2023-09-19T00:42:03;14.32;;;8.76;;
60336;SDS011;46978;50.288;28.624;2023-09-19T00:43:05;15.15;;;8.64;;
60336;SDS011;46978;50.288;28.624;2023-09-19T00:44:07;13.14;;;8.09;;
60336;SDS011;46978;50.288;28.624;2023-09-19T00:45:09;14.25;;;8.53;;
60336;SDS011;46978;50.288;28.624;2023-09-19T00:46:12;15.21;;;8.38;;
60336;SDS011;46978;50.288;28.624;2023-09-19T00:47:16;14.78;;;8.32;;
60336;SDS011;46978;50.288;28.624;2023-09-19T00:48:19;14.24;;;8.53;;
60336;SDS011;46978;50.288;28.624;2023-09-19T00:49:22;14.91;;;8.16;;
60336;SDS011;46978;50.288;28.624;2023-09-19T00:50:24;16.73;;;8.81;;
60336;SDS011;46978;50.288;28.624;2023-09-19T00:51:28;14.78;;;8.35;;
60336;SDS011;46978;50.288;28.624;2023-09-19T00:52:30;16.84;;;8.75;;
60336;SDS011;46978;50.288;28.624;2023-09-19T00:53:32;15.46;;;8.04;;
60336;SDS011;46978;50.288;28.624;2023-09-19T00:54:33;12.64;;;7.77;;
60336;SDS011;46978;50.288;28.624;2023-09-19T00:55:36;14.94;;;8.13;;
60336;SDS011;46978;50.288;28.624;2023-09-19T00:56:38;12.01;;;8.38;;
60336;SDS011;46978;50.288;28.624;2023-09-19T00:57:40;14.59;;;8.44;;
60336;SDS011;46978;50.288;28.624;2023-09-19T00:58:42;14.77;;;8.74;;
60336;SDS011;46978;50.288;28.624;2023-09-19T00:59:43;12.93;;;8.16;;
60336;SDS011;46978;50.288;28.624;2023-09-19T01:00:47;12.44;;;8.29;;
60336;SDS011;46978;50.288;28.624;2023-09-19T01:01:49;14.23;;;8.63;;
60336;SDS011;46978;50.288;28.624;2023-09-19T01:02:51;15.05;;;8.24;;
60336;SDS011;46978;50.288;28.624;2023-09-19T01:03:53;17.33;;;8.22;;
60336;SDS011;46978;50.288;28.624;2023-09-19T01:04:55;12.88;;;8.19;;
60336;SDS011;46978;50.288;28.624;2023-09-19T01:05:57;14.50;;;8.07;;
60336;SDS011;46978;50.288;28.624;2023-09-19T01:07:01;12.89;;;8.26;;
60336;SDS011;46978;50.288;28.624;2023-09-19T01:08:03;11.96;;;7.89;;
60336;SDS011;46978;50.288;28.624;2023-09-19T01:09:05;12.73;;;8.10;;
60336;SDS011;46978;50.288;28.624;2023-09-19T01:10:11;13.66;;;8.49;;
60336;SDS011;46978;50.288;28.624;2023-09-19T01:11:18;12.88;;;8.26;;
60336;SDS011;46978;50.288;28.624;2023-09-19T01:12:24;11.80;;;8.03;;
60336;SDS011;46978;50.288;28.624;2023-09-19T01:13:38;14.23;;;8.07;;
60336;SDS011;46978;50.288;28.624;2023-09-19T01:15:56;15.82;;;8.34;;
60336;SDS011;46978;50.288;28.624;2023-09-19T01:17:09;12.23;;;8.55;;
60336;SDS011;46978;50.288;28.624;2023-09-19T01:22:44;15.30;;;8.47;;
60336;SDS011;46978;50.288;28.624;2023-09-19T01:29:44;15.48;;;8.65;;
60336;SDS011;46978;50.288;28.624;2023-09-19T01:30:48;14.43;;;8.22;;
60336;SDS011;46978;50.288;28.624;2023-09-19T01:31:53;13.98;;;7.89;;
60336;SDS011;46978;50.288;28.624;2023-09-19T01:32:55;14.42;;;8.55;;
60336;SDS011;46978;50.288;28.624;2023-09-19T01:33:58;11.99;;;8.05;;
60336;SDS011;46978;50.288;28.624;2023-09-19T01:35:02;14.89;;;8.39;;
60336;SDS011;46978;50.288;28.624;2023-09-19T01:36:03;16.85;;;8.15;;
60336;SDS011;46978;50.288;28.624;2023-09-19T01:37:05;12.87;;;7.95;;
60336;SDS011;46978;50.288;28.624;2023-09-19T01:38:07;15.23;;;8.09;;
60336;SDS011;46978;50.288;28.624;2023-09-19T01:39:10;12.32;;;8.16;;
60336;SDS011;46978;50.288;28.624;2023-09-19T01:40:14;12.41;;;8.29;;
60336;SDS011;46978;50.288;28.624;2023-09-19T01:41:21;16.70;;;8.38;;
60336;SDS011;46978;50.288;28.624;2023-09-19T01:43:56;12.41;;;8.12;;
60336;SDS011;46978;50.288;28.624;2023-09-19T01:45:24;12.34;;;7.69;;
60336;SDS011;46978;50.288;28.624;2023-09-19T01:46:39;13.32;;;7.91;;
60336;SDS011;46978;50.288;28.624;2023-09-19T01:47:46;17.38;;;8.29;;
60336;SDS011;46978;50.288;28.624;2023-09-19T01:50:00;14.79;;;7.95;;
60336;SDS011;46978;50.288;28.624;2023-09-19T01:51:09;12.79;;;8.25;;
60336;SDS011;46978;50.288;28.624;2023-09-19T01:52:12;15.82;;;8.23;;
60336;SDS011;46978;50.288;28.624;2023-09-19T01:54:33;12.94;;;7.93;;
60336;SDS011;46978;50.288;28.624;2023-09-19T01:55:37;13.84;;;8.38;;
60336;SDS011;46978;50.288;28.624;2023-09-19T01:56:52;13.85;;;7.79;;
60336;SDS011;46978;50.288;28.624;2023-09-19T01:58:16;13.08;;;7.46;;
60336;SDS011;46978;50.288;28.624;2023-09-19T01:59:17;13.93;;;7.47;;
60336;SDS011;46978;50.288;28.624;2023-09-19T02:00:25;12.28;;;7.92;;
60336;SDS011;46978;50.288;28.624;2023-09-19T02:01:28;14.80;;;8.23;;
60336;SDS011;46978;50.288;28.624;2023-09-19T02:02:32;11.20;;;7.49;;
60336;SDS011;46978;50.288;28.624;2023-09-19T02:03:38;14.47;;;7.92;;
60336;SDS011;46978;50.288;28.624;2023-09-19T02:04:42;11.83;;;7.83;;
60336;SDS011;46978;50.288;28.624;2023-09-19T02:05:50;14.84;;;8.26;;
60336;SDS011;46978;50.288;28.624;2023-09-19T02:06:53;13.22;;;7.96;;
60336;SDS011;46978;50.288;28.624;2023-09-19T02:07:54;12.60;;;8.04;;
60336;SDS011;46978;50.288;28.624;2023-09-19T02:08:57;14.77;;;7.83;;
60336;SDS011;46978;50.288;28.624;2023-09-19T02:09:59;14.05;;;7.73;;
60336;SDS011;46978;50.288;28.624;2023-09-19T02:11:01;11.77;;;8.15;;
60336;SDS011;46978;50.288;28.624;2023-09-19T02:12:03;11.76;;;7.84;;
60336;SDS011;46978;50.288;28.624;2023-09-19T02:13:05;11.39;;;7.82;;
60336;SDS011;46978;50.288;28.624;2023-09-19T02:14:07;12.27;;;8.01;;
60336;SDS011;46978;50.288;28.624;2023-09-19T02:15:09;11.71;;;7.63;;
60336;SDS011;46978;50.288;28.624;2023-09-19T02:16:12;14.01;;;8.18;;
60336;SDS011;46978;50.288;28.624;2023-09-19T02:17:14;15.89;;;8.45;;
60336;SDS011;46978;50.288;28.624;2023-09-19T02:18:15;15.51;;;8.63;;
60336;SDS011;46978;50.288;28.624;2023-09-19T02:19:17;15.46;;;7.66;;
60336;SDS011;46978;50.288;28.624;2023-09-19T02:20:19;13.26;;;8.15;;
60336;SDS011;46978;50.288;28.624;2023-09-19T02:21:20;13.98;;;8.18;;
60336;SDS011;46978;50.288;28.624;2023-09-19T02:22:22;11.55;;;7.86;;
60336;SDS011;46978;50.288;28.624;2023-09-19T02:23:24;11.51;;;8.13;;
60336;SDS011;46978;50.288;28.624;2023-09-19T02:24:26;12.39;;;8.13;;
60336;SDS011;46978;50.288;28.624;2023-09-19T02:25:27;11.91;;;7.44;;
60336;SDS011;46978;50.288;28.624;2023-09-19T02:26:29;15.30;;;8.11;;
60336;SDS011;46978;50.288;28.624;2023-09-19T02:27:31;14.97;;;7.91;;
60336;SDS011;46978;50.288;28.624;2023-09-19T02:28:32;12.24;;;8.25;;
60336;SDS011;46978;50.288;28.624;2023-09-19T02:29:34;12.77;;;7.93;;
60336;SDS011;46978;50.288;28.624;2023-09-19T02:30:36;14.74;;;8.16;;
60336;SDS011;46978;50.288;28.624;2023-09-19T02:31:37;15.13;;;7.96;;
60336;SDS011;46978;50.288;28.624;2023-09-19T02:32:39;13.74;;;8.67;;
60336;SDS011;46978;50.288;28.624;2023-09-19T02:33:41;16.01;;;8.78;;
60336;SDS011;46978;50.288;28.624;2023-09-19T02:34:43;15.69;;;8.26;;
60336;SDS011;46978;50.288;28.624;2023-09-19T02:35:44;13.79;;;8.37;;
60336;SDS011;46978;50.288;28.624;2023-09-19T02:36:47;13.56;;;8.48;;
60336;SDS011;46978;50.288;28.624;2023-09-19T02:37:50;12.46;;;8.03;;
60336;SDS011;46978;50.288;28.624;2023-09-19T02:38:51;12.49;;;7.32;;
60336;SDS011;46978;50.288;28.624;2023-09-19T02:39:53;14.99;;;8.35;;
60336;SDS011;46978;50.288;28.624;2023-09-19T02:40:55;15.19;;;7.89;;
60336;SDS011;46978;50.288;28.624;2023-09-19T02:41:57;13.56;;;7.59;;
60336;SDS011;46978;50.288;28.624;2023-09-19T02:42:58;12.46;;;7.91;;
60336;SDS011;46978;50.288;28.624;2023-09-19T02:44:00;11.51;;;7.99;;
60336;SDS011;46978;50.288;28.624;2023-09-19T02:45:02;14.51;;;8.76;;
60336;SDS011;46978;50.288;28.624;2023-09-19T02:46:04;12.20;;;7.83;;
60336;SDS011;46978;50.288;28.624;2023-09-19T02:47:05;14.76;;;8.23;;
60336;SDS011;46978;50.288;28.624;2023-09-19T02:48:07;11.43;;;7.57;;
60336;SDS011;46978;50.288;28.624;2023-09-19T02:49:09;13.59;;;7.77;;
60336;SDS011;46978;50.288;28.624;2023-09-19T02:50:12;14.23;;;8.13;;
60336;SDS011;46978;50.288;28.624;2023-09-19T02:51:14;11.91;;;8.00;;
60336;SDS011;46978;50.288;28.624;2023-09-19T02:52:16;15.27;;;8.28;;
60336;SDS011;46978;50.288;28.624;2023-09-19T02:53:17;12.66;;;8.04;;
60336;SDS011;46978;50.288;28.624;2023-09-19T02:54:19;14.87;;;7.93;;
60336;SDS011;46978;50.288;28.624;2023-09-19T02:55:21;13.74;;;7.99;;
60336;SDS011;46978;50.288;28.624;2023-09-19T02:56:23;13.27;;;7.97;;
60336;SDS011;46978;50.288;28.624;2023-09-19T02:57:25;15.13;;;8.58;;
60336;SDS011;46978;50.288;28.624;2023-09-19T02:58:26;12.79;;;7.55;;
60336;SDS011;46978;50.288;28.624;2023-09-19T02:59:28;13.15;;;7.86;;
60336;SDS011;46978;50.288;28.624;2023-09-19T03:00:30;15.03;;;8.50;;
60336;SDS011;46978;50.288;28.624;2023-09-19T03:01:32;12.41;;;8.11;;
60336;SDS011;46978;50.288;28.624;2023-09-19T03:02:33;14.14;;;8.03;;
60336;SDS011;46978;50.288;28.624;2023-09-19T03:03:35;13.76;;;8.76;;
60336;SDS011;46978;50.288;28.624;2023-09-19T03:04:37;11.78;;;7.77;;
60336;SDS011;46978;50.288;28.624;2023-09-19T03:05:39;12.80;;;7.50;;
60336;SDS011;46978;50.288;28.624;2023-09-19T03:06:41;11.53;;;7.39;;
60336;SDS011;46978;50.288;28.624;2023-09-19T03:07:43;12.81;;;8.15;;
60336;SDS011;46978;50.288;28.624;2023-09-19T03:08:45;12.59;;;7.53;;
60336;SDS011;46978;50.288;28.624;2023-09-19T03:09:46;11.78;;;8.00;;
60336;SDS011;46978;50.288;28.624;2023-09-19T03:10:48;11.73;;;7.71;;
60336;SDS011;46978;50.288;28.624;2023-09-19T03:11:50;13.26;;;8.01;;
60336;SDS011;46978;50.288;28.624;2023-09-19T03:12:52;12.29;;;8.41;;
60336;SDS011;46978;50.288;28.624;2023-09-19T03:13:53;14.53;;;8.36;;
60336;SDS011;46978;50.288;28.624;2023-09-19T03:14:56;13.07;;;8.19;;
60336;SDS011;46978;50.288;28.624;2023-09-19T03:15:57;16.97;;;8.80;;
60336;SDS011;46978;50.288;28.624;2023-09-19T03:16:59;16.96;;;7.91;;
60336;SDS011;46978;50.288;28.624;2023-09-19T03:18:01;14.81;;;7.97;;
60336;SDS011;46978;50.288;28.624;2023-09-19T03:19:02;16.78;;;8.54;;
60336;SDS011;46978;50.288;28.624;2023-09-19T03:20:05;13.40;;;8.40;;
60336;SDS011;46978;50.288;28.624;2023-09-19T03:21:07;16.48;;;8.52;;
60336;SDS011;46978;50.288;28.624;2023-09-19T03:22:09;13.74;;;8.47;;
60336;SDS011;46978;50.288;28.624;2023-09-19T03:23:11;13.49;;;8.64;;
60336;SDS011;46978;50.288;28.624;2023-09-19T03:24:12;12.61;;;7.92;;
60336;SDS011;46978;50.288;28.624;2023-09-19T03:25:14;13.78;;;7.92;;
60336;SDS011;46978;50.288;28.624;2023-09-19T03:26:16;13.46;;;7.77;;
60336;SDS011;46978;50.288;28.624;2023-09-19T03:27:18;11.15;;;7.55;;
60336;SDS011;46978;50.288;28.624;2023-09-19T03:28:20;12.77;;;7.99;;
60336;SDS011;46978;50.288;28.624;2023-09-19T03:29:22;13.07;;;8.20;;
60336;SDS011;46978;50.288;28.624;2023-09-19T03:30:24;12.32;;;7.80;;
60336;SDS011;46978;50.288;28.624;2023-09-19T03:31:26;14.97;;;8.59;;
60336;SDS011;46978;50.288;28.624;2023-09-19T03:32:28;12.22;;;7.89;;
60336;SDS011;46978;50.288;28.624;2023-09-19T03:33:30;17.15;;;8.07;;
60336;SDS011;46978;50.288;28.624;2023-09-19T03:34:32;18.27;;;8.38;;
60336;SDS011;46978;50.288;28.624;2023-09-19T03:35:33;13.11;;;8.03;;
60336;SDS011;46978;50.288;28.624;2023-09-19T03:36:35;13.06;;;8.34;;
60336;SDS011;46978;50.288;28.624;2023-09-19T03:37:37;13.88;;;7.74;;
60336;SDS011;46978;50.288;28.624;2023-09-19T03:38:39;12.82;;;7.97;;
60336;SDS011;46978;50.288;28.624;2023-09-19T03:39:40;14.51;;;8.20;;
60336;SDS011;46978;50.288;28.624;2023-09-19T03:40:43;12.97;;;8.25;;
60336;SDS011;46978;50.288;28.624;2023-09-19T03:41:46;16.29;;;8.18;;
60336;SDS011;46978;50.288;28.624;2023-09-19T03:42:48;14.61;;;8.16;;
60336;SDS011;46978;50.288;28.624;2023-09-19T03:43:49;12.94;;;7.80;;
60336;SDS011;46978;50.288;28.624;2023-09-19T03:44:51;12.88;;;8.39;;
60336;SDS011;46978;50.288;28.624;2023-09-19T03:45:53;17.65;;;7.79;;
60336;SDS011;46978;50.288;28.624;2023-09-19T03:46:55;13.59;;;8.07;;
60336;SDS011;46978;50.288;28.624;2023-09-19T03:47:57;11.41;;;8.19;;
60336;SDS011;46978;50.288;28.624;2023-09-19T03:48:59;16.77;;;8.84;;
60336;SDS011;46978;50.288;28.624;2023-09-19T03:50:00;13.75;;;7.96;;
60336;SDS011;46978;50.288;28.624;2023-09-19T03:51:02;12.61;;;8.19;;
60336;SDS011;46978;50.288;28.624;2023-09-19T03:52:03;19.00;;;8.43;;
60336;SDS011;46978;50.288;28.624;2023-09-19T03:53:05;12.86;;;7.68;;
60336;SDS011;46978;50.288;28.624;2023-09-19T03:54:07;12.12;;;7.99;;
60336;SDS011;46978;50.288;28.624;2023-09-19T03:55:09;13.06;;;8.49;;
60336;SDS011;46978;50.288;28.624;2023-09-19T03:56:10;12.39;;;8.21;;
60336;SDS011;46978;50.288;28.624;2023-09-19T03:57:12;13.71;;;8.32;;
60336;SDS011;46978;50.288;28.624;2023-09-19T03:58:14;12.79;;;8.64;;
60336;SDS011;46978;50.288;28.624;2023-09-19T03:59:16;13.86;;;8.51;;
60336;SDS011;46978;50.288;28.624;2023-09-19T04:00:17;14.99;;;8.57;;
60336;SDS011;46978;50.288;28.624;2023-09-19T04:01:19;13.26;;;8.31;;
60336;SDS011;46978;50.288;28.624;2023-09-19T04:02:21;14.69;;;8.11;;
60336;SDS011;46978;50.288;28.624;2023-09-19T04:03:22;13.29;;;7.84;;
60336;SDS011;46978;50.288;28.624;2023-09-19T04:04:24;14.65;;;8.84;;
60336;SDS011;46978;50.288;28.624;2023-09-19T04:05:26;12.30;;;8.33;;
60336;SDS011;46978;50.288;28.624;2023-09-19T04:06:27;13.91;;;8.43;;
60336;SDS011;46978;50.288;28.624;2023-09-19T04:07:29;12.33;;;8.09;;
60336;SDS011;46978;50.288;28.624;2023-09-19T04:08:31;14.16;;;8.79;;
60336;SDS011;46978;50.288;28.624;2023-09-19T04:09:32;13.74;;;8.44;;
60336;SDS011;46978;50.288;28.624;2023-09-19T04:10:34;13.36;;;7.66;;
60336;SDS011;46978;50.288;28.624;2023-09-19T04:11:35;12.49;;;8.02;;
60336;SDS011;46978;50.288;28.624;2023-09-19T04:12:37;12.90;;;8.21;;
60336;SDS011;46978;50.288;28.624;2023-09-19T04:13:39;14.02;;;8.41;;
60336;SDS011;46978;50.288;28.624;2023-09-19T04:14:41;14.10;;;8.37;;
60336;SDS011;46978;50.288;28.624;2023-09-19T04:15:42;13.03;;;8.34;;
60336;SDS011;46978;50.288;28.624;2023-09-19T04:16:44;14.17;;;7.97;;
60336;SDS011;46978;50.288;28.624;2023-09-19T04:17:45;13.88;;;8.54;;
60336;SDS011;46978;50.288;28.624;2023-09-19T04:18:47;14.85;;;8.64;;
60336;SDS011;46978;50.288;28.624;2023-09-19T04:19:49;13.24;;;7.59;;
60336;SDS011;46978;50.288;28.624;2023-09-19T04:20:50;15.29;;;8.24;;
60336;SDS011;46978;50.288;28.624;2023-09-19T04:21:52;15.61;;;8.21;;
60336;SDS011;46978;50.288;28.624;2023-09-19T04:22:53;12.96;;;8.14;;
60336;SDS011;46978;50.288;28.624;2023-09-19T04:23:55;14.64;;;8.26;;
60336;SDS011;46978;50.288;28.624;2023-09-19T04:24:56;11.99;;;8.09;;
60336;SDS011;46978;50.288;28.624;2023-09-19T04:25:58;17.20;;;8.37;;
60336;SDS011;46978;50.288;28.624;2023-09-19T04:27:00;14.13;;;7.99;;
60336;SDS011;46978;50.288;28.624;2023-09-19T04:28:01;10.99;;;8.54;;
60336;SDS011;46978;50.288;28.624;2023-09-19T04:29:03;12.63;;;8.09;;
60336;SDS011;46978;50.288;28.624;2023-09-19T04:30:06;13.68;;;7.95;;
60336;SDS011;46978;50.288;28.624;2023-09-19T04:31:09;13.02;;;7.86;;
60336;SDS011;46978;50.288;28.624;2023-09-19T04:32:11;11.78;;;7.61;;
60336;SDS011;46978;50.288;28.624;2023-09-19T04:33:12;13.61;;;8.52;;
60336;SDS011;46978;50.288;28.624;2023-09-19T04:34:14;13.87;;;8.46;;
60336;SDS011;46978;50.288;28.624;2023-09-19T04:35:16;13.22;;;7.47;;
60336;SDS011;46978;50.288;28.624;2023-09-19T04:36:17;12.55;;;7.59;;
60336;SDS011;46978;50.288;28.624;2023-09-19T04:37:19;12.67;;;7.98;;
60336;SDS011;46978;50.288;28.624;2023-09-19T04:38:20;11.95;;;8.39;;
60336;SDS011;46978;50.288;28.624;2023-09-19T04:39:22;14.44;;;7.55;;
60336;SDS011;46978;50.288;28.624;2023-09-19T04:40:24;9.96;;;7.36;;
60336;SDS011;46978;50.288;28.624;2023-09-19T04:41:26;10.74;;;7.56;;
60336;SDS011;46978;50.288;28.624;2023-09-19T04:42:27;12.83;;;8.56;;
60336;SDS011;46978;50.288;28.624;2023-09-19T04:43:29;13.24;;;8.05;;
60336;SDS011;46978;50.288;28.624;2023-09-19T04:44:30;12.28;;;7.99;;
60336;SDS011;46978;50.288;28.624;2023-09-19T04:45:32;12.05;;;7.81;;
60336;SDS011;46978;50.288;28.624;2023-09-19T04:46:34;15.16;;;7.83;;
60336;SDS011;46978;50.288;28.624;2023-09-19T04:47:36;10.99;;;7.45;;
60336;SDS011;46978;50.288;28.624;2023-09-19T04:48:40;12.74;;;7.69;;
60336;SDS011;46978;50.288;28.624;2023-09-19T04:49:42;11.27;;;7.32;;
60336;SDS011;46978;50.288;28.624;2023-09-19T04:50:43;12.44;;;7.88;;
60336;SDS011;46978;50.288;28.624;2023-09-19T04:51:45;10.78;;;7.57;;
60336;SDS011;46978;50.288;28.624;2023-09-19T04:52:49;13.49;;;8.12;;
60336;SDS011;46978;50.288;28.624;2023-09-19T04:53:51;12.50;;;7.58;;
60336;SDS011;46978;50.288;28.624;2023-09-19T04:54:52;11.91;;;7.31;;
60336;SDS011;46978;50.288;28.624;2023-09-19T04:55:54;14.14;;;8.09;;
60336;SDS011;46978;50.288;28.624;2023-09-19T04:56:56;12.17;;;7.07;;
60336;SDS011;46978;50.288;28.624;2023-09-19T04:57:57;10.73;;;7.15;;
60336;SDS011;46978;50.288;28.624;2023-09-19T04:58:59;11.39;;;7.59;;
60336;SDS011;46978;50.288;28.624;2023-09-19T05:00:01;10.61;;;7.19;;
60336;SDS011;46978;50.288;28.624;2023-09-19T05:01:03;12.23;;;7.03;;
60336;SDS011;46978;50.288;28.624;2023-09-19T05:02:05;13.61;;;7.40;;
60336;SDS011;46978;50.288;28.624;2023-09-19T05:03:07;11.19;;;7.01;;
60336;SDS011;46978;50.288;28.624;2023-09-19T05:04:08;12.92;;;7.16;;
60336;SDS011;46978;50.288;28.624;2023-09-19T05:05:10;9.89;;;7.10;;
60336;SDS011;46978;50.288;28.624;2023-09-19T05:07:34;10.94;;;7.03;;
60336;SDS011;46978;50.288;28.624;2023-09-19T05:08:36;10.78;;;7.25;;
60336;SDS011;46978;50.288;28.624;2023-09-19T05:09:38;12.59;;;7.54;;
60336;SDS011;46978;50.288;28.624;2023-09-19T05:10:39;12.80;;;7.69;;
60336;SDS011;46978;50.288;28.624;2023-09-19T05:11:41;11.13;;;7.30;;
60336;SDS011;46978;50.288;28.624;2023-09-19T05:12:43;12.40;;;7.06;;
60336;SDS011;46978;50.288;28.624;2023-09-19T05:13:44;10.74;;;7.16;;
60336;SDS011;46978;50.288;28.624;2023-09-19T05:14:46;11.00;;;7.29;;
60336;SDS011;46978;50.288;28.624;2023-09-19T05:15:48;11.03;;;6.71;;
60336;SDS011;46978;50.288;28.624;2023-09-19T05:16:49;13.00;;;7.31;;
60336;SDS011;46978;50.288;28.624;2023-09-19T05:17:51;11.39;;;7.47;;
60336;SDS011;46978;50.288;28.624;2023-09-19T05:18:53;10.43;;;6.79;;
60336;SDS011;46978;50.288;28.624;2023-09-19T05:19:55;10.67;;;6.48;;
60336;SDS011;46978;50.288;28.624;2023-09-19T05:20:57;11.80;;;7.31;;
60336;SDS011;46978;50.288;28.624;2023-09-19T05:21:58;12.86;;;6.91;;
60336;SDS011;46978;50.288;28.624;2023-09-19T05:23:03;10.18;;;6.69;;
60336;SDS011;46978;50.288;28.624;2023-09-19T05:24:06;11.81;;;7.05;;
60336;SDS011;46978;50.288;28.624;2023-09-19T05:25:13;11.75;;;7.18;;
60336;SDS011;46978;50.288;28.624;2023-09-19T05:26:12;9.32;;;6.81;;
60336;SDS011;46978;50.288;28.624;2023-09-19T05:27:14;12.72;;;6.78;;
60336;SDS011;46978;50.288;28.624;2023-09-19T05:28:16;11.41;;;6.89;;
60336;SDS011;46978;50.288;28.624;2023-09-19T05:29:18;15.01;;;7.16;;
60336;SDS011;46978;50.288;28.624;2023-09-19T05:30:20;9.12;;;6.29;;
60336;SDS011;46978;50.288;28.624;2023-09-19T05:31:21;10.40;;;6.94;;
60336;SDS011;46978;50.288;28.624;2023-09-19T05:32:25;9.99;;;6.32;;
60336;SDS011;46978;50.288;28.624;2023-09-19T05:33:27;10.22;;;6.74;;
60336;SDS011;46978;50.288;28.624;2023-09-19T05:34:29;9.61;;;6.17;;
60336;SDS011;46978;50.288;28.624;2023-09-19T05:35:30;11.70;;;6.29;;
60336;SDS011;46978;50.288;28.624;2023-09-19T05:36:33;10.83;;;6.57;;
60336;SDS011;46978;50.288;28.624;2023-09-19T05:37:35;9.85;;;6.61;;
60336;SDS011;46978;50.288;28.624;2023-09-19T05:38:36;13.10;;;6.94;;
60336;SDS011;46978;50.288;28.624;2023-09-19T05:39:38;11.47;;;6.83;;
60336;SDS011;46978;50.288;28.624;2023-09-19T05:40:40;11.18;;;5.96;;
60336;SDS011;46978;50.288;28.624;2023-09-19T05:41:41;10.09;;;6.59;;
60336;SDS011;46978;50.288;28.624;2023-09-19T05:42:43;8.66;;;6.17;;
60336;SDS011;46978;50.288;28.624;2023-09-19T05:43:45;9.88;;;6.36;;
60336;SDS011;46978;50.288;28.624;2023-09-19T05:44:46;10.01;;;6.38;;
60336;SDS011;46978;50.288;28.624;2023-09-19T05:45:48;10.26;;;6.33;;
60336;SDS011;46978;50.288;28.624;2023-09-19T05:46:50;9.32;;;6.28;;
60336;SDS011;46978;50.288;28.624;2023-09-19T05:47:52;12.04;;;6.98;;
60336;SDS011;46978;50.288;28.624;2023-09-19T05:48:54;9.86;;;6.39;;
60336;SDS011;46978;50.288;28.624;2023-09-19T05:49:55;9.76;;;6.28;;
60336;SDS011;46978;50.288;28.624;2023-09-19T05:50:57;9.39;;;6.45;;
60336;SDS011;46978;50.288;28.624;2023-09-19T05:51:59;10.16;;;6.65;;
60336;SDS011;46978;50.288;28.624;2023-09-19T05:53:00;8.93;;;6.13;;
60336;SDS011;46978;50.288;28.624;2023-09-19T05:54:02;10.06;;;6.76;;
60336;SDS011;46978;50.288;28.624;2023-09-19T05:55:04;8.99;;;6.29;;
60336;SDS011;46978;50.288;28.624;2023-09-19T05:56:06;10.35;;;6.33;;
60336;SDS011;46978;50.288;28.624;2023-09-19T05:57:08;9.74;;;6.41;;
60336;SDS011;46978;50.288;28.624;2023-09-19T05:58:09;10.44;;;7.11;;
60336;SDS011;46978;50.288;28.624;2023-09-19T05:59:11;10.21;;;6.01;;
60336;SDS011;46978;50.288;28.624;2023-09-19T06:00:13;11.42;;;6.55;;
60336;SDS011;46978;50.288;28.624;2023-09-19T06:01:15;10.25;;;6.29;;
60336;SDS011;46978;50.288;28.624;2023-09-19T06:02:17;11.95;;;6.40;;
60336;SDS011;46978;50.288;28.624;2023-09-19T06:03:18;10.41;;;6.36;;
60336;SDS011;46978;50.288;28.624;2023-09-19T06:04:20;10.41;;;6.62;;
60336;SDS011;46978;50.288;28.624;2023-09-19T06:05:22;8.16;;;6.16;;
60336;SDS011;46978;50.288;28.624;2023-09-19T06:06:25;10.07;;;6.61;;
60336;SDS011;46978;50.288;28.624;2023-09-19T06:07:26;9.54;;;6.44;;
60336;SDS011;46978;50.288;28.624;2023-09-19T06:08:28;8.21;;;5.94;;
60336;SDS011;46978;50.288;28.624;2023-09-19T06:09:30;9.39;;;6.41;;
60336;SDS011;46978;50.288;28.624;2023-09-19T06:10:31;10.79;;;7.11;;
60336;SDS011;46978;50.288;28.624;2023-09-19T06:11:33;9.19;;;6.39;;
60336;SDS011;46978;50.288;28.624;2023-09-19T06:12:41;9.85;;;6.65;;
60336;SDS011;46978;50.288;28.624;2023-09-19T06:13:42;11.22;;;6.27;;
60336;SDS011;46978;50.288;28.624;2023-09-19T06:14:43;10.32;;;6.21;;
60336;SDS011;46978;50.288;28.624;2023-09-19T06:15:45;11.91;;;6.19;;
60336;SDS011;46978;50.288;28.624;2023-09-19T06:16:47;12.33;;;6.73;;
60336;SDS011;46978;50.288;28.624;2023-09-19T06:17:49;12.05;;;6.36;;
60336;SDS011;46978;50.288;28.624;2023-09-19T06:18:52;10.31;;;6.76;;
60336;SDS011;46978;50.288;28.624;2023-09-19T06:19:54;9.69;;;5.96;;
60336;SDS011;46978;50.288;28.624;2023-09-19T06:20:56;10.95;;;6.56;;
60336;SDS011;46978;50.288;28.624;2023-09-19T06:21:58;9.56;;;5.79;;
60336;SDS011;46978;50.288;28.624;2023-09-19T06:23:00;8.78;;;6.32;;